createdAt,value
2019-05-20T00:00:26.658Z,99914.90
2019-05-20T00:04:30.058Z,99914.09
2019-05-20T00:08:33.637Z,99913.72
2019-05-20T00:12:37.427Z,99922.72
2019-05-20T00:16:41.368Z,99920.31
2019-05-20T00:20:45.268Z,99924.40
2019-05-20T00:24:48.715Z,99923.30
2019-05-20T00:28:52.137Z,99925.73
2019-05-20T00:32:55.576Z,99914.13
2019-05-20T00:36:59.097Z,99917.72
2019-05-20T00:41:02.566Z,99912.45
2019-05-20T00:45:08.475Z,99914.90
2019-05-20T00:49:11.980Z,99923.80
2019-05-20T00:53:15.435Z,99923.31
2019-05-20T00:57:18.914Z,99927.19
2019-05-20T01:01:22.337Z,99928.16
2019-05-20T01:05:25.954Z,99920.91
2019-05-20T01:09:29.764Z,99923.30
2019-05-20T01:13:33.206Z,99923.95
2019-05-20T01:17:36.970Z,99925.23
2019-05-20T01:21:41.373Z,99929.90
2019-05-20T01:25:44.892Z,99931.97
2019-05-20T01:29:49.052Z,99930.98
2019-05-20T01:33:52.789Z,99943.56
2019-05-20T01:37:56.623Z,99943.72
2019-05-20T01:42:00.118Z,99945.95
2019-05-20T01:46:03.574Z,99944.33
2019-05-20T01:50:07.580Z,99944.83
2019-05-20T01:54:11.000Z,99938.57
2019-05-20T01:58:14.445Z,99943.20
2019-05-20T02:02:18.146Z,99946.55
2019-05-20T02:06:21.606Z,99931.20
2019-05-20T02:10:25.372Z,99935.28
2019-05-20T02:14:33.585Z,99934.88
2019-05-20T02:18:37.324Z,99924.20
2019-05-20T02:22:41.121Z,99922.11
2019-05-20T02:26:44.566Z,99931.73
2019-05-20T02:30:47.977Z,99932.70
2019-05-20T02:34:51.559Z,99937.63
2019-05-20T02:38:55.043Z,99937.66
2019-05-20T02:42:58.462Z,99937.25
2019-05-20T02:47:01.914Z,99922.28
2019-05-20T02:51:05.693Z,99933.75
2019-05-20T02:55:09.509Z,99945.10
2019-05-20T02:59:12.957Z,99944.85
2019-05-20T03:03:16.420Z,99942.20
2019-05-20T03:07:19.862Z,99942.88
2019-05-20T03:11:23.305Z,99942.72
2019-05-20T03:15:26.715Z,99937.16
2019-05-20T03:19:30.138Z,99930.90
2019-05-20T03:23:33.600Z,99934.06
2019-05-20T03:27:37.122Z,99929.02
2019-05-20T03:31:40.605Z,99922.74
2019-05-20T03:35:44.266Z,99928.64
2019-05-20T03:39:47.687Z,99929.78
2019-05-20T03:43:51.504Z,99939.48
2019-05-20T03:47:55.435Z,99936.27
2019-05-20T03:51:58.942Z,99934.89
2019-05-20T03:56:02.368Z,99939.53
2019-05-20T04:00:07.249Z,99943.86
2019-05-20T04:04:10.691Z,99943.19
2019-05-20T04:08:14.229Z,99942.06
2019-05-20T04:12:17.753Z,99941.15
2019-05-20T04:16:21.178Z,99944.00
2019-05-20T04:20:24.614Z,99938.00
2019-05-20T04:24:28.434Z,99937.88
2019-05-20T04:28:31.870Z,99934.30
2019-05-20T04:32:35.786Z,99927.25
2019-05-20T04:36:39.605Z,99929.02
2019-05-20T04:40:43.309Z,99921.94
2019-05-20T04:44:47.208Z,99936.48
2019-05-20T04:48:50.690Z,99935.05
2019-05-20T04:52:54.126Z,99933.41
2019-05-20T04:56:57.555Z,99932.02
2019-05-20T05:01:01.014Z,99936.09
2019-05-20T05:05:06.418Z,99931.28
2019-05-20T05:09:10.326Z,99928.38
2019-05-20T05:13:13.842Z,99926.30
2019-05-20T05:17:17.264Z,99932.81
2019-05-20T05:21:20.771Z,99933.06
2019-05-20T05:25:24.382Z,99922.78
2019-05-20T05:29:27.852Z,99924.31
2019-05-20T05:33:31.600Z,99930.20
2019-05-20T05:37:35.157Z,99932.67
2019-05-20T05:41:38.596Z,99935.06
2019-05-20T05:45:42.399Z,99934.26
2019-05-20T05:49:45.844Z,99943.22
2019-05-20T05:53:49.301Z,99937.99
2019-05-20T05:57:53.529Z,99938.73
2019-05-20T06:01:56.966Z,99939.50
2019-05-20T06:06:11.380Z,99937.55
2019-05-20T06:10:09.548Z,99951.64
2019-05-20T06:14:13.243Z,99953.16
2019-05-20T06:18:16.700Z,99948.88
2019-05-20T06:22:20.169Z,99951.40
2019-05-20T06:26:23.927Z,99949.84
2019-05-20T06:30:39.452Z,99952.92
2019-05-20T06:34:43.255Z,99953.70
2019-05-20T06:38:50.254Z,99959.00
2019-05-20T06:42:53.766Z,99963.50
2019-05-20T06:46:57.211Z,99955.86
2019-05-20T06:51:00.823Z,99965.03
2019-05-20T06:55:07.326Z,99962.96
2019-05-20T06:59:11.171Z,99966.22
2019-05-20T07:03:14.647Z,99975.14
2019-05-20T07:07:21.238Z,99974.44
2019-05-20T07:11:23.401Z,99976.27
2019-05-20T07:15:27.834Z,99985.50
2019-05-20T07:19:31.802Z,99981.61
2019-05-20T07:23:38.383Z,99980.91
2019-05-20T07:27:42.131Z,99988.54
2019-05-20T07:31:47.365Z,99990.94
2019-05-20T07:35:51.131Z,99986.42
2019-05-20T07:39:54.592Z,99974.16
2019-05-20T07:43:58.069Z,99976.59
2019-05-20T07:48:02.624Z,99978.05
2019-05-20T07:52:06.225Z,99976.27
2019-05-20T07:56:19.706Z,99981.77
2019-05-20T08:00:24.461Z,99984.21
2019-05-20T08:04:28.592Z,99976.08
2019-05-20T08:08:33.839Z,99983.53
2019-05-20T08:12:37.447Z,99983.56
2019-05-20T08:16:40.880Z,99985.18
2019-05-20T08:20:44.581Z,99984.30
2019-05-20T08:24:48.050Z,99985.66
2019-05-20T08:28:51.511Z,99983.14
2019-05-20T08:32:54.944Z,99983.77
2019-05-20T08:36:58.401Z,99976.00
2019-05-20T08:41:02.155Z,99973.06
2019-05-20T08:45:07.188Z,99977.56
2019-05-20T08:49:11.838Z,99968.08
2019-05-20T08:53:15.899Z,99975.59
2019-05-20T08:57:19.354Z,99982.93
2019-05-20T09:01:24.594Z,99964.87
2019-05-20T09:05:28.896Z,99976.25
2019-05-20T09:09:33.806Z,99971.78
2019-05-20T09:13:37.869Z,99973.53
2019-05-20T09:17:41.910Z,99973.12
2019-05-20T09:21:46.927Z,99970.28
2019-05-20T09:25:51.106Z,99964.50
2019-05-20T09:29:55.055Z,99965.20
2019-05-20T09:33:58.987Z,99963.43
2019-05-20T09:38:17.236Z,99960.74
2019-05-20T09:42:07.999Z,99961.70
2019-05-20T09:46:11.450Z,99963.37
2019-05-20T09:50:15.344Z,99954.11
2019-05-20T09:54:19.223Z,99960.64
2019-05-20T09:58:22.652Z,99958.39
2019-05-20T10:02:35.535Z,99959.25
2019-05-20T10:06:31.276Z,99953.18
2019-05-20T10:10:35.309Z,99946.59
2019-05-20T10:14:38.743Z,99938.41
2019-05-20T10:18:42.476Z,99933.55
2019-05-20T10:22:46.153Z,99941.41
2019-05-20T10:26:50.938Z,99912.57
2019-05-20T10:30:54.782Z,99913.15
2019-05-20T10:34:58.376Z,99929.23
2019-05-20T10:39:02.104Z,99919.47
2019-05-20T10:43:05.617Z,99924.64
2019-05-20T10:47:09.047Z,99918.62
2019-05-20T10:51:12.726Z,99920.14
2019-05-20T10:55:16.703Z,99913.64
2019-05-20T10:59:20.151Z,99912.14
2019-05-20T11:03:23.818Z,99920.58
2019-05-20T11:07:27.262Z,99927.41
2019-05-20T11:11:30.946Z,99925.52
2019-05-20T11:15:36.008Z,99915.83
2019-05-20T11:19:39.430Z,99914.98
2019-05-20T11:23:43.061Z,99912.84
2019-05-20T11:27:46.754Z,99924.52
2019-05-20T11:31:50.477Z,99918.77
2019-05-20T11:35:54.247Z,99918.96
2019-05-20T11:39:57.669Z,99920.39
2019-05-20T11:44:01.728Z,99923.47
2019-05-20T11:48:05.431Z,99919.74
2019-05-20T11:52:10.026Z,99909.77
2019-05-20T11:56:13.540Z,99907.80
2019-05-20T12:00:17.406Z,99913.70
2019-05-20T12:04:21.619Z,99906.61
2019-05-20T12:08:25.329Z,99909.39
2019-05-20T12:12:29.977Z,99904.30
2019-05-20T12:16:33.410Z,99900.45
2019-05-20T12:20:37.183Z,99898.41
2019-05-20T12:24:40.601Z,99894.53
2019-05-20T12:28:44.023Z,99891.32
2019-05-20T12:32:47.458Z,99884.44
2019-05-20T12:36:50.877Z,99880.25
2019-05-20T12:40:54.732Z,99872.16
2019-05-20T12:44:58.155Z,99863.63
2019-05-20T12:49:01.767Z,99856.63
2019-05-20T12:53:07.881Z,99849.02
2019-05-20T12:57:13.490Z,99846.69
2019-05-20T13:01:16.963Z,99853.83
2019-05-20T13:05:20.704Z,99851.81
2019-05-20T13:09:24.413Z,99856.30
2019-05-20T13:13:27.847Z,99846.64
2019-05-20T13:17:32.237Z,99855.20
2019-05-20T13:21:35.785Z,99849.73
2019-05-20T13:25:39.192Z,99852.76
2019-05-20T13:29:42.624Z,99852.08
2019-05-20T13:33:46.049Z,99851.30
2019-05-20T13:37:49.735Z,99843.52
2019-05-20T13:41:53.163Z,99842.39
2019-05-20T13:45:56.848Z,99842.91
2019-05-20T13:50:00.285Z,99835.42
2019-05-20T13:54:03.699Z,99832.03
2019-05-20T13:58:07.118Z,99828.70
2019-05-20T14:02:10.839Z,99816.31
2019-05-20T14:06:14.265Z,99811.20
2019-05-20T14:10:17.813Z,99813.47
2019-05-20T14:14:21.570Z,99809.55
2019-05-20T14:18:24.998Z,99801.97
2019-05-20T14:22:28.681Z,99797.41
2019-05-20T14:26:32.105Z,99789.08
2019-05-20T14:30:36.316Z,99779.39
2019-05-20T14:34:39.755Z,99782.23
2019-05-20T14:38:43.227Z,99783.54
2019-05-20T14:42:46.843Z,99795.66
2019-05-20T14:46:50.672Z,99798.61
2019-05-20T14:50:54.478Z,99796.65
2019-05-20T14:54:57.972Z,99812.44
2019-05-20T14:59:01.898Z,99825.92
2019-05-20T15:03:06.466Z,99831.70
2019-05-20T15:07:09.854Z,99828.48
2019-05-20T15:11:13.301Z,99817.61
2019-05-20T15:15:18.304Z,99807.22
2019-05-20T15:19:21.745Z,99800.11
2019-05-20T15:23:25.286Z,99780.52
2019-05-20T15:27:28.741Z,99770.92
2019-05-20T15:31:32.180Z,99767.94
2019-05-20T15:35:36.172Z,99791.42
2019-05-20T15:39:39.887Z,99799.25
2019-05-20T15:43:43.392Z,99807.12
2019-05-20T15:47:47.785Z,99808.02
2019-05-20T15:51:51.913Z,99806.11
2019-05-20T15:55:57.821Z,99797.91
2019-05-20T16:00:01.707Z,99794.11
2019-05-20T16:04:05.221Z,99798.06
2019-05-20T16:08:08.936Z,99792.33
2019-05-20T16:12:12.390Z,99793.44
2019-05-20T16:16:16.668Z,99786.70
2019-05-20T16:20:20.432Z,99798.58
2019-05-20T16:24:23.854Z,99799.06
2019-05-20T16:28:27.600Z,99800.18
2019-05-20T16:32:31.052Z,99805.73
2019-05-20T16:36:34.461Z,99805.79
2019-05-20T16:40:38.329Z,99800.98
2019-05-20T16:44:42.037Z,99802.92
2019-05-20T16:48:45.480Z,99803.09
2019-05-20T16:52:49.503Z,99806.00
2019-05-20T16:56:53.030Z,99809.02
2019-05-20T17:00:56.531Z,99800.19
2019-05-20T17:04:59.953Z,99813.65
2019-05-20T17:09:05.157Z,99801.98
2019-05-20T17:13:08.800Z,99806.31
2019-05-20T17:17:13.475Z,99812.25
2019-05-20T17:21:17.218Z,99822.86
2019-05-20T17:25:21.107Z,99822.25
2019-05-20T17:29:24.795Z,99816.72
2019-05-20T17:33:28.883Z,99811.53
2019-05-20T17:37:32.348Z,99822.27
2019-05-20T17:41:36.221Z,99832.63
2019-05-20T17:45:39.792Z,99829.41
2019-05-20T17:49:43.223Z,99820.75
2019-05-20T17:53:46.681Z,99820.33
2019-05-20T17:57:51.589Z,99814.17
2019-05-20T18:01:55.024Z,99813.78
2019-05-20T18:05:58.523Z,99817.41
2019-05-20T18:10:02.449Z,99815.94
2019-05-20T18:14:06.051Z,99820.28
2019-05-20T18:18:10.530Z,99816.17
2019-05-20T18:22:14.099Z,99815.77
2019-05-20T18:26:17.609Z,99829.06
2019-05-20T18:30:21.502Z,99841.34
2019-05-20T18:34:25.045Z,99853.02
2019-05-20T18:38:28.611Z,99848.72
2019-05-20T18:42:32.078Z,99856.66
2019-05-20T18:46:36.122Z,99853.50
2019-05-20T18:50:39.846Z,99858.64
2019-05-20T18:54:43.669Z,99866.82
2019-05-20T18:58:47.114Z,99862.36
2019-05-20T19:02:50.575Z,99868.93
2019-05-20T19:06:55.240Z,99868.98
2019-05-20T19:10:58.639Z,99884.31
2019-05-20T19:15:03.465Z,99874.13
2019-05-20T19:19:06.892Z,99867.20
2019-05-20T19:23:10.330Z,99867.44
2019-05-20T19:27:13.782Z,99864.83
2019-05-20T19:31:17.910Z,99853.63
2019-05-20T19:35:21.406Z,99850.89
2019-05-20T19:39:25.129Z,99849.53
2019-05-20T19:43:28.558Z,99845.69
2019-05-20T19:47:32.344Z,99832.53
2019-05-20T19:51:36.040Z,99823.81
2019-05-20T19:55:39.750Z,99825.98
2019-05-20T19:59:43.255Z,99815.50
2019-05-20T20:03:46.771Z,99805.35
2019-05-20T20:07:50.280Z,99801.06
2019-05-20T20:11:54.003Z,99807.98
2019-05-20T20:15:57.348Z,99817.50
2019-05-20T20:20:00.892Z,99816.20
2019-05-20T20:24:04.901Z,99816.20
2019-05-20T20:28:08.388Z,99830.91
2019-05-20T20:32:12.784Z,99830.91
2019-05-20T20:36:16.287Z,99826.25
2019-05-20T20:40:19.726Z,99838.44
2019-05-20T20:44:23.175Z,99839.95
2019-05-20T20:48:26.891Z,99838.70
2019-05-20T20:52:32.464Z,99843.81
2019-05-20T20:56:35.982Z,99842.65
2019-05-20T21:00:39.420Z,99856.39
2019-05-20T21:04:42.871Z,99847.47
2019-05-20T21:08:47.019Z,99851.44
2019-05-20T21:12:50.456Z,99844.36
2019-05-20T21:16:55.723Z,99830.60
2019-05-20T21:41:13.079Z,99831.23
2019-05-20T21:49:55.483Z,99830.95
2019-05-20T21:53:59.034Z,99823.69
2019-05-20T21:58:03.684Z,99825.82
2019-05-20T22:02:07.560Z,99824.55
2019-05-20T22:06:11.129Z,99827.30
2019-05-20T22:10:14.822Z,99813.30
2019-05-20T22:14:18.414Z,99821.06
2019-05-20T22:18:21.832Z,99821.96
2019-05-20T22:22:27.032Z,99817.78
2019-05-20T22:26:30.845Z,99825.42
2019-05-20T22:30:34.315Z,99812.13
2019-05-20T22:34:38.301Z,99807.89
2019-05-20T22:38:42.989Z,99799.94
2019-05-20T22:42:46.410Z,99793.27
2019-05-20T22:46:50.271Z,99795.44
2019-05-20T22:50:54.028Z,99797.69
2019-05-20T22:54:57.551Z,99803.51
2019-05-20T22:59:01.132Z,99806.59
2019-05-20T23:03:04.580Z,99807.46
2019-05-20T23:07:08.154Z,99802.70
2019-05-20T23:11:12.486Z,99808.41
2019-05-20T23:15:16.109Z,99814.06
2019-05-20T23:19:19.550Z,99823.29
2019-05-20T23:23:23.063Z,99816.69
2019-05-20T23:27:27.491Z,99817.17
2019-05-20T23:31:31.296Z,99820.92
2019-05-20T23:35:36.422Z,99812.42
2019-05-20T23:39:39.875Z,99803.63
2019-05-20T23:43:43.395Z,99804.29
2019-05-20T23:47:46.830Z,99807.41
2019-05-20T23:51:50.283Z,99800.59
2019-05-20T23:55:53.914Z,99792.30
2019-05-20T23:59:57.375Z,99788.19
